sensor_id;sensor_type;location;lat;lon;timestamp;P1;durP1;ratioP1;P2;durP2;ratioP2
47635;SDS011;33364;50.766;15.338;2023-07-02T00:00:31;3.25;;;1.85;;
47635;SDS011;33364;50.766;15.338;2023-07-02T00:03:17;3.30;;;1.70;;
47635;SDS011;33364;50.766;15.338;2023-07-02T00:05:47;1.45;;;1.15;;
47635;SDS011;33364;50.766;15.338;2023-07-02T00:08:16;3.05;;;1.40;;
47635;SDS011;33364;50.766;15.338;2023-07-02T00:10:43;1.88;;;1.50;;
47635;SDS011;33364;50.766;15.338;2023-07-02T00:13:08;2.10;;;1.30;;
47635;SDS011;33364;50.766;15.338;2023-07-02T00:15:34;2.78;;;1.13;;
47635;SDS011;33364;50.766;15.338;2023-07-02T00:18:00;1.33;;;1.10;;
47635;SDS011;33364;50.766;15.338;2023-07-02T00:20:26;3.00;;;1.67;;
47635;SDS011;33364;50.766;15.338;2023-07-02T00:22:51;3.58;;;1.20;;
47635;SDS011;33364;50.766;15.338;2023-07-02T00:25:20;2.58;;;1.38;;
47635;SDS011;33364;50.766;15.338;2023-07-02T00:27:45;3.67;;;1.70;;
47635;SDS011;33364;50.766;15.338;2023-07-02T00:30:11;2.90;;;1.25;;
47635;SDS011;33364;50.766;15.338;2023-07-02T00:32:37;3.90;;;1.52;;
47635;SDS011;33364;50.766;15.338;2023-07-02T00:35:04;2.13;;;1.38;;
47635;SDS011;33364;50.766;15.338;2023-07-02T00:37:29;2.53;;;1.30;;
47635;SDS011;33364;50.766;15.338;2023-07-02T00:39:55;3.63;;;1.45;;
47635;SDS011;33364;50.766;15.338;2023-07-02T00:42:21;1.98;;;1.40;;
47635;SDS011;33364;50.766;15.338;2023-07-02T00:44:49;2.08;;;1.35;;
47635;SDS011;33364;50.766;15.338;2023-07-02T00:47:17;1.85;;;1.30;;
47635;SDS011;33364;50.766;15.338;2023-07-02T00:49:43;1.95;;;1.40;;
47635;SDS011;33364;50.766;15.338;2023-07-02T00:52:09;5.68;;;1.65;;
47635;SDS011;33364;50.766;15.338;2023-07-02T00:54:36;2.38;;;1.20;;
47635;SDS011;33364;50.766;15.338;2023-07-02T00:57:01;3.20;;;2.25;;
47635;SDS011;33364;50.766;15.338;2023-07-02T00:59:28;3.75;;;1.70;;
47635;SDS011;33364;50.766;15.338;2023-07-02T01:01:55;2.22;;;1.20;;
47635;SDS011;33364;50.766;15.338;2023-07-02T01:04:22;2.70;;;1.30;;
47635;SDS011;33364;50.766;15.338;2023-07-02T01:06:53;2.55;;;1.65;;
47635;SDS011;33364;50.766;15.338;2023-07-02T01:09:25;1.67;;;1.42;;
47635;SDS011;33364;50.766;15.338;2023-07-02T01:12:02;3.08;;;1.35;;
47635;SDS011;33364;50.766;15.338;2023-07-02T01:14:32;1.75;;;1.27;;
47635;SDS011;33364;50.766;15.338;2023-07-02T01:17:01;2.60;;;1.42;;
47635;SDS011;33364;50.766;15.338;2023-07-02T01:19:50;2.10;;;1.35;;
47635;SDS011;33364;50.766;15.338;2023-07-02T01:22:19;2.05;;;1.45;;
47635;SDS011;33364;50.766;15.338;2023-07-02T01:24:47;3.13;;;1.58;;
47635;SDS011;33364;50.766;15.338;2023-07-02T01:27:16;3.05;;;1.48;;
47635;SDS011;33364;50.766;15.338;2023-07-02T01:29:43;3.40;;;1.40;;
47635;SDS011;33364;50.766;15.338;2023-07-02T01:32:13;1.80;;;1.45;;
47635;SDS011;33364;50.766;15.338;2023-07-02T01:34:39;2.33;;;1.50;;
47635;SDS011;33364;50.766;15.338;2023-07-02T01:37:05;1.88;;;1.20;;
47635;SDS011;33364;50.766;15.338;2023-07-02T01:39:32;3.42;;;1.60;;
47635;SDS011;33364;50.766;15.338;2023-07-02T01:44:52;2.33;;;1.47;;
47635;SDS011;33364;50.766;15.338;2023-07-02T01:47:18;2.53;;;1.30;;
47635;SDS011;33364;50.766;15.338;2023-07-02T01:49:45;1.90;;;1.40;;
47635;SDS011;33364;50.766;15.338;2023-07-02T01:52:11;1.58;;;1.20;;
47635;SDS011;33364;50.766;15.338;2023-07-02T01:54:37;1.60;;;1.10;;
47635;SDS011;33364;50.766;15.338;2023-07-02T01:57:02;1.55;;;1.05;;
47635;SDS011;33364;50.766;15.338;2023-07-02T01:59:29;1.58;;;1.25;;
47635;SDS011;33364;50.766;15.338;2023-07-02T02:01:55;1.50;;;1.10;;
47635;SDS011;33364;50.766;15.338;2023-07-02T02:04:21;1.85;;;1.10;;
47635;SDS011;33364;50.766;15.338;2023-07-02T02:06:46;2.35;;;1.40;;
47635;SDS011;33364;50.766;15.338;2023-07-02T02:09:12;2.58;;;1.10;;
47635;SDS011;33364;50.766;15.338;2023-07-02T02:11:39;1.88;;;1.48;;
47635;SDS011;33364;50.766;15.338;2023-07-02T02:14:06;1.83;;;1.25;;
47635;SDS011;33364;50.766;15.338;2023-07-02T02:16:32;4.57;;;1.73;;
47635;SDS011;33364;50.766;15.338;2023-07-02T02:18:59;1.75;;;1.40;;
47635;SDS011;33364;50.766;15.338;2023-07-02T02:21:26;1.55;;;1.30;;
47635;SDS011;33364;50.766;15.338;2023-07-02T02:23:52;2.38;;;1.20;;
47635;SDS011;33364;50.766;15.338;2023-07-02T02:26:18;2.42;;;1.30;;
47635;SDS011;33364;50.766;15.338;2023-07-02T02:28:47;1.92;;;1.05;;
47635;SDS011;33364;50.766;15.338;2023-07-02T02:31:14;2.45;;;1.35;;
47635;SDS011;33364;50.766;15.338;2023-07-02T02:33:40;2.25;;;1.27;;
47635;SDS011;33364;50.766;15.338;2023-07-02T02:36:06;1.80;;;1.10;;
47635;SDS011;33364;50.766;15.338;2023-07-02T02:38:32;2.10;;;1.30;;
47635;SDS011;33364;50.766;15.338;2023-07-02T02:40:59;1.50;;;1.23;;
47635;SDS011;33364;50.766;15.338;2023-07-02T02:43:27;5.05;;;1.50;;
47635;SDS011;33364;50.766;15.338;2023-07-02T02:45:52;2.47;;;1.40;;
47635;SDS011;33364;50.766;15.338;2023-07-02T02:48:18;3.55;;;1.30;;
47635;SDS011;33364;50.766;15.338;2023-07-02T02:50:44;1.63;;;1.17;;
47635;SDS011;33364;50.766;15.338;2023-07-02T02:53:11;1.35;;;1.20;;
47635;SDS011;33364;50.766;15.338;2023-07-02T02:55:36;3.35;;;1.17;;
47635;SDS011;33364;50.766;15.338;2023-07-02T02:58:03;1.77;;;1.20;;
47635;SDS011;33364;50.766;15.338;2023-07-02T03:00:28;1.40;;;1.00;;
47635;SDS011;33364;50.766;15.338;2023-07-02T03:02:55;2.33;;;1.35;;
47635;SDS011;33364;50.766;15.338;2023-07-02T03:05:21;3.08;;;1.30;;
47635;SDS011;33364;50.766;15.338;2023-07-02T03:07:48;1.75;;;1.30;;
47635;SDS011;33364;50.766;15.338;2023-07-02T03:10:15;2.03;;;1.33;;
47635;SDS011;33364;50.766;15.338;2023-07-02T03:12:41;2.72;;;1.35;;
47635;SDS011;33364;50.766;15.338;2023-07-02T03:15:07;2.20;;;1.63;;
47635;SDS011;33364;50.766;15.338;2023-07-02T03:17:33;2.22;;;1.30;;
47635;SDS011;33364;50.766;15.338;2023-07-02T03:19:59;5.63;;;1.60;;
47635;SDS011;33364;50.766;15.338;2023-07-02T03:22:26;1.88;;;1.73;;
47635;SDS011;33364;50.766;15.338;2023-07-02T03:24:52;3.13;;;1.50;;
47635;SDS011;33364;50.766;15.338;2023-07-02T03:27:18;1.70;;;1.45;;
47635;SDS011;33364;50.766;15.338;2023-07-02T03:29:43;3.33;;;1.60;;
47635;SDS011;33364;50.766;15.338;2023-07-02T03:32:09;2.58;;;1.55;;
47635;SDS011;33364;50.766;15.338;2023-07-02T03:34:35;1.50;;;1.33;;
47635;SDS011;33364;50.766;15.338;2023-07-02T03:37:01;2.63;;;1.60;;
47635;SDS011;33364;50.766;15.338;2023-07-02T03:39:26;2.55;;;1.50;;
47635;SDS011;33364;50.766;15.338;2023-07-02T03:41:52;2.97;;;1.35;;
47635;SDS011;33364;50.766;15.338;2023-07-02T03:44:18;2.15;;;1.45;;
47635;SDS011;33364;50.766;15.338;2023-07-02T03:46:45;1.80;;;1.33;;
47635;SDS011;33364;50.766;15.338;2023-07-02T03:49:10;3.17;;;1.70;;
47635;SDS011;33364;50.766;15.338;2023-07-02T03:51:36;2.40;;;1.63;;
47635;SDS011;33364;50.766;15.338;2023-07-02T03:54:03;2.33;;;1.27;;
47635;SDS011;33364;50.766;15.338;2023-07-02T03:56:30;2.28;;;1.42;;
47635;SDS011;33364;50.766;15.338;2023-07-02T03:58:55;2.88;;;1.30;;
47635;SDS011;33364;50.766;15.338;2023-07-02T04:01:21;2.78;;;1.20;;
47635;SDS011;33364;50.766;15.338;2023-07-02T04:03:51;2.47;;;1.40;;
47635;SDS011;33364;50.766;15.338;2023-07-02T04:06:18;1.38;;;1.13;;
47635;SDS011;33364;50.766;15.338;2023-07-02T04:08:44;2.63;;;1.73;;
47635;SDS011;33364;50.766;15.338;2023-07-02T04:11:11;2.13;;;1.65;;
47635;SDS011;33364;50.766;15.338;2023-07-02T04:13:37;2.53;;;1.40;;
47635;SDS011;33364;50.766;15.338;2023-07-02T04:16:04;2.10;;;1.65;;
47635;SDS011;33364;50.766;15.338;2023-07-02T04:18:30;2.15;;;1.40;;
47635;SDS011;33364;50.766;15.338;2023-07-02T04:20:56;1.75;;;1.60;;
47635;SDS011;33364;50.766;15.338;2023-07-02T04:23:22;1.45;;;1.35;;
47635;SDS011;33364;50.766;15.338;2023-07-02T04:25:48;1.88;;;1.60;;
47635;SDS011;33364;50.766;15.338;2023-07-02T04:28:14;2.05;;;1.42;;
47635;SDS011;33364;50.766;15.338;2023-07-02T04:30:40;1.73;;;1.50;;
47635;SDS011;33364;50.766;15.338;2023-07-02T04:33:07;2.08;;;1.50;;
47635;SDS011;33364;50.766;15.338;2023-07-02T04:35:33;1.73;;;1.20;;
47635;SDS011;33364;50.766;15.338;2023-07-02T04:38:00;1.83;;;1.35;;
47635;SDS011;33364;50.766;15.338;2023-07-02T04:40:26;2.00;;;1.38;;
47635;SDS011;33364;50.766;15.338;2023-07-02T04:42:52;3.70;;;1.60;;
47635;SDS011;33364;50.766;15.338;2023-07-02T04:45:23;2.80;;;1.73;;
47635;SDS011;33364;50.766;15.338;2023-07-02T04:47:50;1.65;;;1.33;;
47635;SDS011;33364;50.766;15.338;2023-07-02T04:50:17;2.13;;;1.77;;
47635;SDS011;33364;50.766;15.338;2023-07-02T04:52:43;3.10;;;2.13;;
47635;SDS011;33364;50.766;15.338;2023-07-02T04:55:09;3.08;;;2.00;;
47635;SDS011;33364;50.766;15.338;2023-07-02T04:57:35;2.13;;;1.92;;
47635;SDS011;33364;50.766;15.338;2023-07-02T05:00:01;1.95;;;1.70;;
47635;SDS011;33364;50.766;15.338;2023-07-02T05:02:31;2.55;;;2.35;;
47635;SDS011;33364;50.766;15.338;2023-07-02T05:04:57;4.63;;;1.85;;
47635;SDS011;33364;50.766;15.338;2023-07-02T05:07:23;3.78;;;2.03;;
47635;SDS011;33364;50.766;15.338;2023-07-02T05:09:49;2.78;;;2.00;;
47635;SDS011;33364;50.766;15.338;2023-07-02T05:12:17;2.15;;;1.95;;
47635;SDS011;33364;50.766;15.338;2023-07-02T05:14:43;2.17;;;1.90;;
47635;SDS011;33364;50.766;15.338;2023-07-02T05:17:09;2.75;;;2.35;;
47635;SDS011;33364;50.766;15.338;2023-07-02T05:19:35;3.00;;;2.00;;
47635;SDS011;33364;50.766;15.338;2023-07-02T05:22:00;3.95;;;2.20;;
47635;SDS011;33364;50.766;15.338;2023-07-02T05:24:26;3.83;;;2.53;;
47635;SDS011;33364;50.766;15.338;2023-07-02T05:26:52;2.58;;;2.13;;
47635;SDS011;33364;50.766;15.338;2023-07-02T05:29:18;3.08;;;2.13;;
47635;SDS011;33364;50.766;15.338;2023-07-02T05:31:44;3.05;;;2.20;;
47635;SDS011;33364;50.766;15.338;2023-07-02T05:34:10;3.95;;;2.50;;
47635;SDS011;33364;50.766;15.338;2023-07-02T05:36:36;4.93;;;2.65;;
47635;SDS011;33364;50.766;15.338;2023-07-02T05:39:02;2.78;;;2.58;;
47635;SDS011;33364;50.766;15.338;2023-07-02T05:41:27;5.43;;;2.92;;
47635;SDS011;33364;50.766;15.338;2023-07-02T05:43:59;2.40;;;2.00;;
47635;SDS011;33364;50.766;15.338;2023-07-02T05:46:25;5.07;;;2.38;;
47635;SDS011;33364;50.766;15.338;2023-07-02T05:48:52;3.30;;;2.95;;
47635;SDS011;33364;50.766;15.338;2023-07-02T05:51:20;4.55;;;3.08;;
47635;SDS011;33364;50.766;15.338;2023-07-02T05:53:47;2.85;;;2.30;;
47635;SDS011;33364;50.766;15.338;2023-07-02T05:56:13;4.13;;;2.42;;
47635;SDS011;33364;50.766;15.338;2023-07-02T05:58:39;3.65;;;2.80;;
47635;SDS011;33364;50.766;15.338;2023-07-02T06:01:05;3.45;;;2.92;;
47635;SDS011;33364;50.766;15.338;2023-07-02T06:03:32;3.15;;;2.25;;
47635;SDS011;33364;50.766;15.338;2023-07-02T06:05:58;3.33;;;2.88;;
47635;SDS011;33364;50.766;15.338;2023-07-02T06:08:24;3.35;;;3.05;;
47635;SDS011;33364;50.766;15.338;2023-07-02T06:10:50;8.88;;;2.95;;
47635;SDS011;33364;50.766;15.338;2023-07-02T06:13:16;4.07;;;3.60;;
47635;SDS011;33364;50.766;15.338;2023-07-02T06:15:42;3.92;;;3.53;;
47635;SDS011;33364;50.766;15.338;2023-07-02T06:18:08;3.47;;;3.00;;
47635;SDS011;33364;50.766;15.338;2023-07-02T06:20:34;4.68;;;3.00;;
47635;SDS011;33364;50.766;15.338;2023-07-02T06:22:59;3.58;;;3.28;;
47635;SDS011;33364;50.766;15.338;2023-07-02T06:25:25;2.53;;;2.33;;
47635;SDS011;33364;50.766;15.338;2023-07-02T06:27:52;5.55;;;3.97;;
47635;SDS011;33364;50.766;15.338;2023-07-02T06:30:21;3.55;;;3.25;;
47635;SDS011;33364;50.766;15.338;2023-07-02T06:32:47;4.60;;;3.95;;
47635;SDS011;33364;50.766;15.338;2023-07-02T06:35:13;4.03;;;3.72;;
47635;SDS011;33364;50.766;15.338;2023-07-02T06:37:39;4.15;;;3.40;;
47635;SDS011;33364;50.766;15.338;2023-07-02T06:40:05;4.20;;;3.83;;
47635;SDS011;33364;50.766;15.338;2023-07-02T06:42:32;5.40;;;4.72;;
47635;SDS011;33364;50.766;15.338;2023-07-02T06:44:58;4.75;;;4.35;;
47635;SDS011;33364;50.766;15.338;2023-07-02T06:47:24;5.60;;;4.93;;
47635;SDS011;33364;50.766;15.338;2023-07-02T06:49:51;4.07;;;3.67;;
47635;SDS011;33364;50.766;15.338;2023-07-02T06:52:17;5.10;;;4.65;;
47635;SDS011;33364;50.766;15.338;2023-07-02T06:54:43;5.63;;;4.70;;
47635;SDS011;33364;50.766;15.338;2023-07-02T06:57:09;4.57;;;4.18;;
47635;SDS011;33364;50.766;15.338;2023-07-02T06:59:35;6.38;;;4.93;;
47635;SDS011;33364;50.766;15.338;2023-07-02T07:02:01;5.40;;;4.90;;
47635;SDS011;33364;50.766;15.338;2023-07-02T07:04:28;7.93;;;3.88;;
47635;SDS011;33364;50.766;15.338;2023-07-02T07:06:54;4.28;;;3.80;;
47635;SDS011;33364;50.766;15.338;2023-07-02T07:09:21;3.72;;;3.33;;
47635;SDS011;33364;50.766;15.338;2023-07-02T07:11:47;3.50;;;3.20;;
47635;SDS011;33364;50.766;15.338;2023-07-02T07:14:13;13.68;;;4.50;;
47635;SDS011;33364;50.766;15.338;2023-07-02T07:16:39;3.30;;;1.15;;
47635;SDS011;33364;50.766;15.338;2023-07-02T07:19:05;2.72;;;0.88;;
47635;SDS011;33364;50.766;15.338;2023-07-02T07:21:31;2.95;;;0.90;;
47635;SDS011;33364;50.766;15.338;2023-07-02T07:23:57;1.05;;;0.70;;
47635;SDS011;33364;50.766;15.338;2023-07-02T07:26:23;2.42;;;0.73;;
47635;SDS011;33364;50.766;15.338;2023-07-02T07:28:49;1.25;;;0.80;;
47635;SDS011;33364;50.766;15.338;2023-07-02T07:31:14;3.28;;;0.70;;
47635;SDS011;33364;50.766;15.338;2023-07-02T07:33:40;3.78;;;0.85;;
47635;SDS011;33364;50.766;15.338;2023-07-02T07:36:06;1.45;;;1.00;;
47635;SDS011;33364;50.766;15.338;2023-07-02T07:38:32;1.05;;;0.73;;
47635;SDS011;33364;50.766;15.338;2023-07-02T07:40:58;1.70;;;0.70;;
47635;SDS011;33364;50.766;15.338;2023-07-02T07:43:24;1.77;;;0.70;;
47635;SDS011;33364;50.766;15.338;2023-07-02T07:45:49;4.80;;;0.93;;
47635;SDS011;33364;50.766;15.338;2023-07-02T07:48:15;1.42;;;0.90;;
47635;SDS011;33364;50.766;15.338;2023-07-02T07:50:41;1.15;;;1.00;;
47635;SDS011;33364;50.766;15.338;2023-07-02T07:53:07;1.85;;;1.30;;
47635;SDS011;33364;50.766;15.338;2023-07-02T07:55:33;1.60;;;1.10;;
47635;SDS011;33364;50.766;15.338;2023-07-02T07:57:59;1.30;;;1.10;;
47635;SDS011;33364;50.766;15.338;2023-07-02T08:00:24;1.48;;;1.25;;
47635;SDS011;33364;50.766;15.338;2023-07-02T08:02:52;2.30;;;1.10;;
47635;SDS011;33364;50.766;15.338;2023-07-02T08:05:20;1.50;;;1.40;;
47635;SDS011;33364;50.766;15.338;2023-07-02T08:07:47;1.88;;;1.35;;
47635;SDS011;33364;50.766;15.338;2023-07-02T08:10:12;2.00;;;1.50;;
47635;SDS011;33364;50.766;15.338;2023-07-02T08:12:38;2.08;;;1.60;;
47635;SDS011;33364;50.766;15.338;2023-07-02T08:15:04;4.10;;;1.90;;
47635;SDS011;33364;50.766;15.338;2023-07-02T08:17:31;3.35;;;1.73;;
47635;SDS011;33364;50.766;15.338;2023-07-02T08:19:57;2.60;;;2.40;;
47635;SDS011;33364;50.766;15.338;2023-07-02T08:22:23;3.28;;;1.95;;
47635;SDS011;33364;50.766;15.338;2023-07-02T08:24:49;2.00;;;1.60;;
47635;SDS011;33364;50.766;15.338;2023-07-02T08:27:15;4.10;;;2.20;;
47635;SDS011;33364;50.766;15.338;2023-07-02T08:29:45;4.03;;;2.35;;
47635;SDS011;33364;50.766;15.338;2023-07-02T08:32:12;3.25;;;2.25;;
47635;SDS011;33364;50.766;15.338;2023-07-02T08:34:37;4.43;;;2.08;;
47635;SDS011;33364;50.766;15.338;2023-07-02T08:37:03;2.65;;;2.45;;
47635;SDS011;33364;50.766;15.338;2023-07-02T08:39:29;2.70;;;2.00;;
47635;SDS011;33364;50.766;15.338;2023-07-02T08:41:55;2.10;;;1.90;;
47635;SDS011;33364;50.766;15.338;2023-07-02T08:44:21;2.30;;;2.10;;
47635;SDS011;33364;50.766;15.338;2023-07-02T08:46:47;3.70;;;3.17;;
47635;SDS011;33364;50.766;15.338;2023-07-02T08:49:18;4.55;;;3.55;;
47635;SDS011;33364;50.766;15.338;2023-07-02T08:51:45;5.50;;;3.40;;
47635;SDS011;33364;50.766;15.338;2023-07-02T08:54:11;4.65;;;2.28;;
47635;SDS011;33364;50.766;15.338;2023-07-02T08:56:38;3.15;;;2.40;;
47635;SDS011;33364;50.766;15.338;2023-07-02T08:59:07;5.57;;;3.22;;
47635;SDS011;33364;50.766;15.338;2023-07-02T09:01:55;4.38;;;2.95;;
47635;SDS011;33364;50.766;15.338;2023-07-02T09:06:47;3.45;;;2.75;;
47635;SDS011;33364;50.766;15.338;2023-07-02T09:09:13;4.65;;;3.13;;
47635;SDS011;33364;50.766;15.338;2023-07-02T09:11:46;4.07;;;3.40;;
47635;SDS011;33364;50.766;15.338;2023-07-02T09:14:23;3.47;;;3.17;;
47635;SDS011;33364;50.766;15.338;2023-07-02T09:19:32;3.83;;;3.20;;
47635;SDS011;33364;50.766;15.338;2023-07-02T09:21:58;3.65;;;3.08;;
47635;SDS011;33364;50.766;15.338;2023-07-02T09:24:25;3.58;;;2.88;;
47635;SDS011;33364;50.766;15.338;2023-07-02T09:26:53;3.80;;;3.25;;
47635;SDS011;33364;50.766;15.338;2023-07-02T09:29:21;5.40;;;3.35;;
47635;SDS011;33364;50.766;15.338;2023-07-02T09:31:49;3.78;;;3.40;;
47635;SDS011;33364;50.766;15.338;2023-07-02T09:34:15;3.30;;;3.00;;
47635;SDS011;33364;50.766;15.338;2023-07-02T09:36:42;3.53;;;3.20;;
47635;SDS011;33364;50.766;15.338;2023-07-02T09:39:10;3.45;;;3.00;;
47635;SDS011;33364;50.766;15.338;2023-07-02T09:41:44;3.67;;;2.90;;
47635;SDS011;33364;50.766;15.338;2023-07-02T09:44:16;4.82;;;2.90;;
47635;SDS011;33364;50.766;15.338;2023-07-02T09:46:49;4.70;;;3.20;;
47635;SDS011;33364;50.766;15.338;2023-07-02T09:49:21;7.05;;;2.83;;
47635;SDS011;33364;50.766;15.338;2023-07-02T09:51:49;2.47;;;2.22;;
47635;SDS011;33364;50.766;15.338;2023-07-02T09:54:16;3.35;;;2.60;;
47635;SDS011;33364;50.766;15.338;2023-07-02T09:56:42;3.40;;;2.72;;
47635;SDS011;33364;50.766;15.338;2023-07-02T09:59:10;3.40;;;2.70;;
47635;SDS011;33364;50.766;15.338;2023-07-02T10:01:36;2.45;;;2.25;;
47635;SDS011;33364;50.766;15.338;2023-07-02T10:04:15;4.72;;;2.30;;
47635;SDS011;33364;50.766;15.338;2023-07-02T10:06:47;2.83;;;2.60;;
47635;SDS011;33364;50.766;15.338;2023-07-02T10:09:16;5.00;;;2.67;;
47635;SDS011;33364;50.766;15.338;2023-07-02T10:11:42;2.40;;;2.20;;
47635;SDS011;33364;50.766;15.338;2023-07-02T10:14:09;6.72;;;2.35;;
47635;SDS011;33364;50.766;15.338;2023-07-02T10:16:48;3.10;;;2.30;;
47635;SDS011;33364;50.766;15.338;2023-07-02T10:19:17;3.05;;;2.33;;
47635;SDS011;33364;50.766;15.338;2023-07-02T10:21:43;2.92;;;2.17;;
47635;SDS011;33364;50.766;15.338;2023-07-02T10:24:15;3.53;;;2.00;;
47635;SDS011;33364;50.766;15.338;2023-07-02T10:26:58;2.85;;;2.40;;
47635;SDS011;33364;50.766;15.338;2023-07-02T10:29:25;4.13;;;2.70;;
47635;SDS011;33364;50.766;15.338;2023-07-02T10:31:54;4.43;;;2.35;;
47635;SDS011;33364;50.766;15.338;2023-07-02T10:34:35;3.63;;;2.42;;
47635;SDS011;33364;50.766;15.338;2023-07-02T10:37:01;3.45;;;2.40;;
47635;SDS011;33364;50.766;15.338;2023-07-02T10:39:29;2.63;;;2.00;;
47635;SDS011;33364;50.766;15.338;2023-07-02T10:42:08;5.57;;;1.92;;
47635;SDS011;33364;50.766;15.338;2023-07-02T10:44:35;3.75;;;2.50;;
47635;SDS011;33364;50.766;15.338;2023-07-02T10:47:13;2.58;;;1.98;;
47635;SDS011;33364;50.766;15.338;2023-07-02T10:49:39;5.30;;;2.10;;
47635;SDS011;33364;50.766;15.338;2023-07-02T10:52:05;3.78;;;1.65;;
47635;SDS011;33364;50.766;15.338;2023-07-02T10:54:42;5.82;;;2.47;;
47635;SDS011;33364;50.766;15.338;2023-07-02T10:57:10;2.92;;;2.25;;
47635;SDS011;33364;50.766;15.338;2023-07-02T10:59:40;3.05;;;1.98;;
47635;SDS011;33364;50.766;15.338;2023-07-02T11:02:06;2.92;;;2.20;;
47635;SDS011;33364;50.766;15.338;2023-07-02T11:04:33;5.25;;;2.78;;
47635;SDS011;33364;50.766;15.338;2023-07-02T11:07:02;4.38;;;1.90;;
47635;SDS011;33364;50.766;15.338;2023-07-02T11:09:28;2.67;;;2.03;;
47635;SDS011;33364;50.766;15.338;2023-07-02T11:11:55;3.45;;;2.20;;
47635;SDS011;33364;50.766;15.338;2023-07-02T11:16:56;2.33;;;2.03;;
47635;SDS011;33364;50.766;15.338;2023-07-02T11:19:23;2.60;;;2.08;;
47635;SDS011;33364;50.766;15.338;2023-07-02T11:21:50;3.40;;;1.83;;
47635;SDS011;33364;50.766;15.338;2023-07-02T11:24:25;4.70;;;2.38;;
47635;SDS011;33364;50.766;15.338;2023-07-02T11:27:04;2.83;;;1.80;;
47635;SDS011;33364;50.766;15.338;2023-07-02T11:29:33;4.32;;;1.80;;
47635;SDS011;33364;50.766;15.338;2023-07-02T11:32:07;3.33;;;2.30;;
47635;SDS011;33364;50.766;15.338;2023-07-02T11:34:35;3.63;;;2.93;;
47635;SDS011;33364;50.766;15.338;2023-07-02T11:37:01;1.98;;;1.77;;
47635;SDS011;33364;50.766;15.338;2023-07-02T11:39:27;3.20;;;1.90;;
47635;SDS011;33364;50.766;15.338;2023-07-02T11:41:53;2.38;;;2.17;;
47635;SDS011;33364;50.766;15.338;2023-07-02T11:44:19;3.53;;;1.75;;
47635;SDS011;33364;50.766;15.338;2023-07-02T11:46:44;2.67;;;1.80;;
47635;SDS011;33364;50.766;15.338;2023-07-02T11:49:12;2.53;;;1.63;;
47635;SDS011;33364;50.766;15.338;2023-07-02T11:51:38;1.80;;;1.63;;
47635;SDS011;33364;50.766;15.338;2023-07-02T11:54:05;2.30;;;1.55;;
47635;SDS011;33364;50.766;15.338;2023-07-02T11:56:32;3.15;;;2.03;;
47635;SDS011;33364;50.766;15.338;2023-07-02T11:58:58;1.50;;;1.40;;
47635;SDS011;33364;50.766;15.338;2023-07-02T12:01:24;3.08;;;1.80;;
47635;SDS011;33364;50.766;15.338;2023-07-02T12:03:50;3.35;;;1.83;;
47635;SDS011;33364;50.766;15.338;2023-07-02T12:06:16;2.42;;;1.80;;
47635;SDS011;33364;50.766;15.338;2023-07-02T12:08:42;4.50;;;1.75;;
47635;SDS011;33364;50.766;15.338;2023-07-02T12:11:08;2.13;;;1.98;;
47635;SDS011;33364;50.766;15.338;2023-07-02T12:13:34;1.73;;;1.58;;
47635;SDS011;33364;50.766;15.338;2023-07-02T12:16:00;3.22;;;1.50;;
47635;SDS011;33364;50.766;15.338;2023-07-02T12:18:26;2.28;;;1.90;;
47635;SDS011;33364;50.766;15.338;2023-07-02T12:20:52;2.97;;;1.60;;
47635;SDS011;33364;50.766;15.338;2023-07-02T12:23:18;2.35;;;1.58;;
47635;SDS011;33364;50.766;15.338;2023-07-02T12:25:43;2.65;;;1.63;;
47635;SDS011;33364;50.766;15.338;2023-07-02T12:28:09;5.57;;;1.60;;
47635;SDS011;33364;50.766;15.338;2023-07-02T12:30:35;2.10;;;1.38;;
47635;SDS011;33364;50.766;15.338;2023-07-02T12:33:01;1.60;;;1.40;;
47635;SDS011;33364;50.766;15.338;2023-07-02T12:35:27;1.75;;;1.45;;
47635;SDS011;33364;50.766;15.338;2023-07-02T12:37:53;2.42;;;1.70;;
47635;SDS011;33364;50.766;15.338;2023-07-02T12:40:19;2.20;;;1.83;;
47635;SDS011;33364;50.766;15.338;2023-07-02T12:42:46;1.67;;;1.40;;
47635;SDS011;33364;50.766;15.338;2023-07-02T12:45:13;3.75;;;1.65;;
47635;SDS011;33364;50.766;15.338;2023-07-02T12:47:40;5.03;;;1.40;;
47635;SDS011;33364;50.766;15.338;2023-07-02T12:50:07;2.40;;;1.30;;
47635;SDS011;33364;50.766;15.338;2023-07-02T12:52:34;2.33;;;1.70;;
47635;SDS011;33364;50.766;15.338;2023-07-02T12:55:00;3.40;;;1.70;;
47635;SDS011;33364;50.766;15.338;2023-07-02T12:57:27;2.13;;;1.50;;
47635;SDS011;33364;50.766;15.338;2023-07-02T12:59:53;3.20;;;1.70;;
47635;SDS011;33364;50.766;15.338;2023-07-02T13:02:20;5.72;;;1.75;;
47635;SDS011;33364;50.766;15.338;2023-07-02T13:04:47;2.10;;;1.55;;
47635;SDS011;33364;50.766;15.338;2023-07-02T13:07:13;1.90;;;1.45;;
47635;SDS011;33364;50.766;15.338;2023-07-02T13:09:39;2.03;;;1.70;;
47635;SDS011;33364;50.766;15.338;2023-07-02T13:12:05;2.42;;;1.83;;
47635;SDS011;33364;50.766;15.338;2023-07-02T13:14:31;2.63;;;1.60;;
47635;SDS011;33364;50.766;15.338;2023-07-02T13:16:58;2.30;;;1.40;;
47635;SDS011;33364;50.766;15.338;2023-07-02T13:19:28;1.40;;;1.25;;
47635;SDS011;33364;50.766;15.338;2023-07-02T13:21:54;3.38;;;1.55;;
47635;SDS011;33364;50.766;15.338;2023-07-02T13:24:20;2.75;;;1.40;;
47635;SDS011;33364;50.766;15.338;2023-07-02T13:26:46;1.77;;;1.55;;
47635;SDS011;33364;50.766;15.338;2023-07-02T13:29:12;3.00;;;1.52;;
47635;SDS011;33364;50.766;15.338;2023-07-02T13:31:38;3.78;;;1.70;;
47635;SDS011;33364;50.766;15.338;2023-07-02T13:34:03;2.13;;;1.40;;
47635;SDS011;33364;50.766;15.338;2023-07-02T13:36:29;3.03;;;1.80;;
47635;SDS011;33364;50.766;15.338;2023-07-02T13:38:55;2.03;;;1.50;;
47635;SDS011;33364;50.766;15.338;2023-07-02T13:41:21;3.90;;;1.95;;
47635;SDS011;33364;50.766;15.338;2023-07-02T13:43:47;1.95;;;1.67;;
47635;SDS011;33364;50.766;15.338;2023-07-02T13:46:13;3.65;;;1.40;;
47635;SDS011;33364;50.766;15.338;2023-07-02T13:48:39;3.28;;;2.53;;
47635;SDS011;33364;50.766;15.338;2023-07-02T13:51:05;1.65;;;1.25;;
47635;SDS011;33364;50.766;15.338;2023-07-02T13:53:33;2.88;;;1.45;;
47635;SDS011;33364;50.766;15.338;2023-07-02T13:55:59;1.40;;;1.15;;
47635;SDS011;33364;50.766;15.338;2023-07-02T13:58:25;2.38;;;1.50;;
47635;SDS011;33364;50.766;15.338;2023-07-02T14:00:51;2.05;;;1.20;;
47635;SDS011;33364;50.766;15.338;2023-07-02T14:03:17;1.55;;;1.45;;
47635;SDS011;33364;50.766;15.338;2023-07-02T14:05:43;1.60;;;1.38;;
47635;SDS011;33364;50.766;15.338;2023-07-02T14:08:08;2.00;;;1.52;;
47635;SDS011;33364;50.766;15.338;2023-07-02T14:10:35;2.28;;;1.50;;
47635;SDS011;33364;50.766;15.338;2023-07-02T14:13:00;3.40;;;1.15;;
47635;SDS011;33364;50.766;15.338;2023-07-02T14:15:27;1.60;;;1.50;;
47635;SDS011;33364;50.766;15.338;2023-07-02T14:17:53;3.17;;;1.30;;
47635;SDS011;33364;50.766;15.338;2023-07-02T14:20:19;2.10;;;1.23;;
47635;SDS011;33364;50.766;15.338;2023-07-02T14:22:46;2.55;;;1.40;;
47635;SDS011;33364;50.766;15.338;2023-07-02T14:25:12;1.77;;;1.27;;
47635;SDS011;33364;50.766;15.338;2023-07-02T14:27:37;1.70;;;1.23;;
47635;SDS011;33364;50.766;15.338;2023-07-02T14:30:04;3.42;;;2.05;;
47635;SDS011;33364;50.766;15.338;2023-07-02T14:32:33;2.75;;;1.23;;
47635;SDS011;33364;50.766;15.338;2023-07-02T14:35:01;1.48;;;1.17;;
47635;SDS011;33364;50.766;15.338;2023-07-02T14:37:27;2.53;;;1.50;;
47635;SDS011;33364;50.766;15.338;2023-07-02T14:39:53;1.95;;;1.42;;
47635;SDS011;33364;50.766;15.338;2023-07-02T14:42:19;2.28;;;1.20;;